Flight Track Log - Related Links

Times and Time Zones

All times are in EDT time to prevent confusion due to time zone crossing. See the SKW6301 flight status page for this flight to view local times or setup timezone preferences in your user account.

Time Position Orientation Groundspeed Altitude Reporting Facility
EDT Latitude Longitude Course Direction KTS MPH feet Rate Location/Type
Mon 12:07:20 AM 39.8833 -104.6000 111° Southeast 177 204 6,400  Level Denver TRACON
Mon 12:08:14 AM 39.8667 -104.5333 108° East 218 251 8,100 1,706 Climbing Denver TRACON
Mon 12:09:00 AM 39.7437 -104.2331 113° Southeast  Level Estimated
Mon 12:09:02 AM 39.8333 -104.4667 123° Southeast 261 300 9,300  Level Denver TRACON
Mon 12:10:00 AM 39.7040 -104.0868 113° Southeast  Level Estimated
Mon 12:10:01 AM 39.8019 -104.3778 115° Southeast 295 339 11,000  Level Denver Center
Mon 12:11:00 AM 39.6641 -103.9406 108° East  Level Estimated
Mon 12:11:02 AM 39.7619 -104.2675 115° Southeast 335 386 12,700  Level Denver Center
Mon 12:12:00 AM 39.6241 -103.7946 111° Southeast  Level Estimated
Mon 12:12:03 AM 39.7256 -104.1456 111° Southeast 362 417 14,500  Level Denver Center
Mon 12:13:04 AM 39.6889 -104.0081 109° East 374 430 16,800 1,967 Climbing Denver Center
Mon 12:14:05 AM 39.6511 -103.8767 110° East 388 447 18,500 1,820 Climbing Denver Center
Mon 12:15:06 AM 39.6167 -103.7464 109° East 389 448 20,500 1,574 Climbing Denver Center
Mon 12:16:07 AM 39.5828 -103.6261 110° East 388 447 21,700 1,254 Climbing Denver Center
Mon 12:17:20 AM 39.5361 -103.4581 110° East 412 474 23,300 1,343 Climbing Denver Center
Mon 12:18:21 AM 39.4872 -103.2828 110° East 431 496 24,700 1,240 Climbing Denver Center
Mon 12:19:21 AM 39.4444 -103.1333 110° East 441 507 25,800 1,190 Climbing Denver Center
Mon 12:20:22 AM 39.4008 -102.9814 110° East 448 516 27,100 1,230 Climbing Denver Center
Mon 12:21:23 AM 39.3581 -102.8297 110° East 451 519 28,300 1,082 Climbing Denver Center
Mon 12:22:24 AM 39.3172 -102.6878 110° East 459 528 29,300 1,279 Climbing Denver Center
Mon 12:23:25 AM 39.2675 -102.5156 110° East 460 529 30,900 1,426 Climbing Denver Center
Mon 12:24:26 AM 39.2244 -102.3667 110° East 462 532 32,200 1,328 Climbing Denver Center
Mon 12:25:27 AM 39.1817 -102.2222 111° Southeast 455 524 33,600 1,475 Climbing Denver Center
Mon 12:26:28 AM 39.1322 -102.0539 111° Southeast 451 519 35,200 1,537 Climbing Denver Center
Mon 12:27:28 AM 39.0911 -101.9128 111° Southeast 443 510 36,700 1,289 Climbing Denver Center
Mon 12:28:29 AM 39.0425 -101.7528 111° Southeast 433 498 37,800 885 Climbing Denver Center
Mon 12:29:30 AM 39.0011 -101.6158 111° Southeast 430 495 38,500 537 Climbing Denver Center
Mon 12:30:43 AM 38.9519 -101.4536 111° Southeast 435 501 39,000 224 Climbing Denver Center
Mon 12:31:44 AM 38.9025 -101.2875 111° Southeast 443 510 39,000  Level Denver Center
Mon 12:32:45 AM 38.8597 -101.1444 111° Southeast 447 514 39,000  Level Denver Center
Mon 12:33:46 AM 38.8156 -101.0000 111° Southeast 451 519 39,000  Level Denver Center
Mon 12:34:46 AM 38.7636 -100.8325 112° Southeast 453 521 39,000  Level Denver Center
Mon 12:35:47 AM 38.7203 -100.6892 111° Southeast 450 518 39,000  Level Denver Center
Mon 12:36:48 AM 38.6753 -100.5453 112° Southeast 454 522 39,000  Level Denver Center
Mon 12:37:49 AM 38.6225 -100.3778 112° Southeast 455 524 39,000  Level Denver Center
Mon 12:38:49 AM 38.5781 -100.2344 112° Southeast 453 521 39,000  Level Denver Center
Mon 12:39:50 AM 38.5325 -100.0919 112° Southeast 453 521 39,000  Level Denver Center
Mon 12:40:51 AM 38.4797 -99.9242 112° Southeast 455 524 39,000  Level Denver Center
Mon 12:41:51 AM 38.4342 -99.7811 112° Southeast 454 522 39,000  Level Denver Center
Mon 12:43:07 AM 38.3714 -99.5911 113° Southeast 454 522 39,000  Level Kansas City Center
Mon 12:44:07 AM 38.3253 -99.4503 113° Southeast 456 525 39,000 -1,450 Level Kansas City Center
Mon 12:45:07 AM 38.2761 -99.3006 113° Southeast 458 527 36,100 -3,050 Descending Kansas City Center
Mon 12:46:07 AM 38.2278 -99.1508 112° Southeast 459 528 32,900 -3,174 Descending Kansas City Center
Mon 12:47:08 AM 38.1781 -99.0022 113° Southeast 458 527 29,700 -3,223 Descending Kansas City Center
Mon 12:48:08 AM 38.1317 -98.8578 112° Southeast 448 516 26,400 -3,100 Descending Kansas City Center
Mon 12:49:08 AM 38.0811 -98.7075 113° Southeast 457 526 23,500 -3,000 Descending Kansas City Center
Mon 12:50:08 AM 38.0319 -98.5581 113° Southeast 460 529 20,400 -3,148 Descending Kansas City Center
Mon 12:50:09 AM 38.0300 -98.5486 105° East 459 528 20,300 -5,143 Descending Kansas City Center
Mon 12:50:15 AM 38.0219 -98.5286 117° Southeast 456 525 19,800 -2,847 Descending Kansas City Center
Mon 12:51:08 AM 37.9875 -98.4200 112° Southeast 434 499 17,500 -2,951 Descending Kansas City Center
Mon 12:51:16 AM 37.9783 -98.3914 112° Southeast 410 472 16,800 -2,900 Descending Kansas City Center
Mon 12:52:08 AM 37.9475 -98.2944 112° Southeast 393 452 14,600 -2,700 Descending Kansas City Center
Mon 12:52:16 AM 37.9397 -98.2672 110° East 376 433 14,100 -2,164 Descending Kansas City Center
Mon 12:53:09 AM 37.9189 -98.1667 105° East 379 436 12,400 -1,967 Descending Kansas City Center
Mon 12:53:17 AM 37.9114 -98.1386 109° East 373 429 12,100 -1,200 Descending Kansas City Center
Mon 12:54:09 AM 37.8914 -98.0464 105° East 367 422 11,200 -1,082 Descending Kansas City Center
Mon 12:54:18 AM 37.8839 -98.0208 110° East 354 407 11,000 -1,000 Descending Kansas City Center
Mon 12:55:09 AM 37.8664 -97.9397 105° East 337 388 10,200 -1,100 Descending Kansas City Center
Mon 12:55:18 AM 37.8594 -97.9158 110° East 301 346 9,900 -1,300 Descending Kansas City Center
Mon 12:56:09 AM 37.8439 -97.8464 106° East 301 346 8,900 -1,522 Descending Kansas City Center
Mon 12:56:25 AM 37.8344 -97.8083 107° East 269 310 8,200 -1,500 Descending Kansas City Center
Mon 12:57:09 AM 37.8222 -97.7542 106° East 281 323 7,400 -1,475 Descending Kansas City Center
Mon 12:57:26 AM 37.8108 -97.7139 110° East 280 322 6,700 -1,500 Descending Kansas City Center
Mon 12:58:09 AM 37.7997 -97.6578 104° East 284 327 5,900 -1,500 Descending Kansas City Center
Mon 12:58:26 AM 37.7889 -97.6139 107° East 292 336 5,200 -1,500 Descending Kansas City Center
Mon 12:59:09 AM 37.7733 -97.5442 106° East 284 327 4,400 -885 Descending Kansas City Center
Mon 12:59:27 AM 37.7675 -97.5247 111° Southeast 267 307 4,300 -787 Descending Kansas City Center
Mon 01:00:10 AM 37.7542 -97.4656 106° East 254 292 3,600 -1,000 Descending Kansas City Center
Mon 01:00:21 AM 37.7503 -97.4558 117° Southeast 206 237 3,400 -1,100 Descending Kansas City Center
Mon 01:01:10 AM 37.7258 -97.4192 130° Southeast 201 231 2,500 -984 Descending Kansas City Center
Mon 01:01:22 AM 37.7194 -97.4183 174° South 124 143 2,400 -500 Descending Kansas City Center
Mon 01:02:10 AM 37.6961 -97.4175 178° South 139 160 2,000 -500 Descending Kansas City Center
Mon 01:02:22 AM 37.6903 -97.4200 199° South 90 104 1,900 -500 Descending Kansas City Center
Mon 01:03:10 AM 37.6672 -97.4311 201° Southwest 118 136 1,500 -500 Descending Kansas City Center

Login

Don't have an account? Register now (free) for customized features, flight alerts, and more!